Time;durP1;ratioP1;P1;durP2;ratioP2;P2;SDS_P1;SDS_P2;PMS_P1;PMS_P2;Temp;Humidity;BMP_temperature;BMP_pressure;BME280_temperature;BME280_humidity;BME280_pressure;Samples;Min_cycle;Max_cycle;Signal;HPM_P1;HPM_P2
2021/03/11 00:00:52;;;;;;;23.43;19.07;;;;;;;18.75;46.87;100121.44;2091725;28;20028;-55
2021/03/11 00:01:53;;;;;;;20.57;17.70;;;;;;;18.75;46.99;100121.44;2089524;28;20080;-55
2021/03/11 00:02:53;;;;;;;21.93;17.53;;;;;;;18.75;46.85;100112.41;2089395;28;20021;-55
2021/03/11 00:03:53;;;;;;;21.60;18.30;;;;;;;18.75;46.78;100115.13;2087824;28;20111;-55
2021/03/11 00:04:54;;;;;;;20.87;17.20;;;;;;;18.75;46.98;100117.88;2088930;28;20040;-55
2021/03/11 00:05:54;;;;;;;20.27;17.90;;;;;;;18.75;46.97;100115.97;2090041;28;20052;-55
2021/03/11 00:06:55;;;;;;;20.10;17.23;;;;;;;18.75;46.85;100121.44;2086065;28;20629;-55
2021/03/11 00:07:55;;;;;;;23.27;18.37;;;;;;;18.75;46.90;100115.97;2089405;28;20095;-55
2021/03/11 00:08:55;;;;;;;19.97;17.63;;;;;;;18.74;46.93;100111.53;2087901;28;20140;-55
2021/03/11 00:09:56;;;;;;;24.93;19.27;;;;;;;18.76;46.94;100112.25;2087336;28;20024;-55
2021/03/11 00:10:56;;;;;;;21.73;18.17;;;;;;;18.75;47.06;100115.97;2090818;28;20059;-55
2021/03/11 00:11:57;;;;;;;22.23;18.20;;;;;;;18.76;47.12;100112.25;2087891;28;20040;-55
2021/03/11 00:12:58;;;;;;;23.50;18.60;;;;;;;18.76;47.14;100116.88;2091890;28;20116;-55
2021/03/11 00:13:58;;;;;;;21.47;17.17;;;;;;;18.76;47.00;100115.00;2089323;28;20119;-55
2021/03/11 00:14:58;;;;;;;25.03;17.83;;;;;;;18.76;46.96;100112.25;2088708;28;20508;-55
2021/03/11 00:15:59;;;;;;;23.30;19.13;;;;;;;18.77;46.82;100114.00;2089296;28;20102;-55
2021/03/11 00:17:00;;;;;;;20.00;16.80;;;;;;;18.77;46.85;100119.47;2089451;28;20025;-55
2021/03/11 00:18:00;;;;;;;22.20;17.67;;;;;;;18.77;46.92;100110.41;2088053;28;20036;-55
2021/03/11 00:19:01;;;;;;;21.47;18.67;;;;;;;18.78;46.92;100112.13;2088021;28;20029;-55
2021/03/11 00:20:05;;;;;;;20.88;18.35;;;;;;;18.77;46.91;100114.00;2089639;28;20060;-56
2021/03/11 00:21:06;;;;;;;21.30;17.80;;;;;;;18.77;46.89;100111.28;2090282;28;20028;-55
2021/03/11 00:22:06;;;;;;;22.53;18.97;;;;;;;18.77;46.80;100119.47;2089081;28;20040;-55
2021/03/11 00:23:07;;;;;;;22.70;18.10;;;;;;;18.77;46.90;100114.00;2084832;28;20028;-55
2021/03/11 00:24:08;;;;;;;22.80;18.17;;;;;;;18.77;46.81;100118.63;2086516;28;20037;-55
2021/03/11 00:25:14;;;;;;;19.85;17.65;;;;;;;18.76;46.78;100112.25;2089311;28;20033;-55
2021/03/11 00:26:14;;;;;;;25.27;18.25;;;;;;;18.76;46.83;100117.72;2088592;28;20399;-55
2021/03/11 00:27:15;;;;;;;23.97;19.33;;;;;;;18.76;46.91;100106.81;2088598;28;20051;-56
2021/03/11 00:28:15;;;;;;;21.43;16.97;;;;;;;18.75;46.87;100107.78;2089309;28;20036;-55
2021/03/11 00:29:15;;;;;;;22.33;18.13;;;;;;;18.75;46.80;100110.53;2089897;28;20062;-55
2021/03/11 00:30:17;;;;;;;23.00;18.47;;;;;;;18.75;46.79;100110.53;2089427;28;20029;-55
2021/03/11 00:31:18;;;;;;;20.70;17.73;;;;;;;18.75;46.88;100110.53;2085691;28;20092;-55
2021/03/11 00:32:18;;;;;;;21.47;17.97;;;;;;;18.75;46.89;100105.06;2089490;28;20033;-56
2021/03/11 00:33:18;;;;;;;22.87;19.07;;;;;;;18.74;46.85;100103.34;2088561;28;20560;-55
2021/03/11 00:34:19;;;;;;;21.40;18.17;;;;;;;18.74;46.76;100103.34;2087917;28;20021;-56
2021/03/11 00:35:20;;;;;;;21.53;18.23;;;;;;;18.75;46.76;100104.22;2089122;28;20335;-55
2021/03/11 00:36:21;;;;;;;21.00;18.07;;;;;;;18.75;46.82;100110.53;2083215;28;20028;-56
2021/03/11 00:37:21;;;;;;;20.10;17.43;;;;;;;18.74;46.82;100108.81;2085452;28;20479;-56
2021/03/11 00:38:21;;;;;;;22.10;18.00;;;;;;;18.74;46.92;100107.94;2089509;28;20041;-55
2021/03/11 00:39:22;;;;;;;21.67;18.47;;;;;;;18.73;46.95;100101.59;2094413;28;20043;-55
2021/03/11 00:40:23;;;;;;;19.67;17.37;;;;;;;18.74;46.98;100107.94;2090950;28;20021;-56
2021/03/11 00:41:23;;;;;;;21.00;17.67;;;;;;;18.74;46.90;100107.94;2084078;28;20031;-55
2021/03/11 00:42:24;;;;;;;19.77;17.57;;;;;;;18.73;46.91;100109.81;2089421;28;20047;-55
2021/03/11 00:43:24;;;;;;;21.73;17.43;;;;;;;18.73;46.81;100107.06;2088907;28;20107;-55
2021/03/11 00:44:24;;;;;;;19.63;16.57;;;;;;;18.73;46.93;100107.06;2089042;28;20036;-56
2021/03/11 00:45:25;;;;;;;19.63;16.90;;;;;;;18.72;46.79;100105.38;2086745;28;20020;-55
2021/03/11 00:46:25;;;;;;;22.10;18.37;;;;;;;18.71;46.82;100103.63;2091114;28;20020;-55
2021/03/11 00:47:26;;;;;;;20.33;17.57;;;;;;;18.72;46.96;100104.50;2093244;28;20032;-56
2021/03/11 00:48:26;;;;;;;22.93;18.33;;;;;;;18.70;47.03;100096.44;2086722;28;20024;-55
2021/03/11 00:49:27;;;;;;;18.97;16.77;;;;;;;18.70;46.91;100101.91;2088408;28;20036;-55
2021/03/11 00:50:27;;;;;;;21.10;17.90;;;;;;;18.70;47.00;100093.72;2088650;28;20083;-56
2021/03/11 00:51:27;;;;;;;21.60;17.87;;;;;;;18.71;47.11;100097.31;2085538;28;20055;-55
2021/03/11 00:52:28;;;;;;;19.90;17.80;;;;;;;18.70;46.99;100095.59;2084462;28;20024;-56
2021/03/11 00:53:28;;;;;;;20.90;18.03;;;;;;;18.70;47.01;100095.59;2089235;28;20027;-56
2021/03/11 00:54:29;;;;;;;20.30;16.30;;;;;;;18.69;47.12;100097.47;2089612;28;20044;-55
2021/03/11 00:55:29;;;;;;;20.30;17.63;;;;;;;18.70;47.03;100093.72;2089906;28;20036;-55
2021/03/11 00:56:29;;;;;;;19.60;16.80;;;;;;;18.69;47.05;100088.41;2089236;28;20048;-56
2021/03/11 00:57:30;;;;;;;19.90;17.17;;;;;;;18.68;46.89;100087.53;2088218;28;20031;-56
2021/03/11 00:58:30;;;;;;;19.93;17.40;;;;;;;18.69;47.06;100093.84;2088908;28;20108;-55
2021/03/11 00:59:31;;;;;;;19.97;17.77;;;;;;;18.68;47.04;100095.72;2089811;28;20074;-55
2021/03/11 01:00:31;;;;;;;20.60;17.57;;;;;;;18.67;47.06;100088.56;2087682;28;20033;-55
2021/03/11 01:01:33;;;;;;;18.80;16.13;;;;;;;18.68;47.00;100092.16;2088375;28;20319;-55
2021/03/11 01:02:34;;;;;;;21.55;16.77;;;;;;;18.67;46.86;100094.03;2087066;28;20309;-55
2021/03/11 01:03:35;;;;;;;20.03;17.60;;;;;;;18.67;47.02;100096.75;2086634;28;20370;-55
2021/03/11 01:04:35;;;;;;;21.55;17.55;;;;;;;18.67;46.87;100091.28;2088480;28;20025;-55
2021/03/11 01:05:36;;;;;;;20.70;17.13;;;;;;;18.67;47.17;100095.88;2092940;28;20051;-55
2021/03/11 01:06:36;;;;;;;21.67;17.50;;;;;;;18.67;47.06;100093.13;2088669;28;20017;-56
2021/03/11 01:07:37;;;;;;;19.10;16.30;;;;;;;18.66;47.08;100095.00;2085613;28;20028;-55
2021/03/11 01:08:38;;;;;;;20.90;17.07;;;;;;;18.66;47.00;100089.56;2085496;28;20033;-55
2021/03/11 01:09:38;;;;;;;23.10;17.37;;;;;;;18.67;46.94;100085.84;2086439;28;20335;-54
2021/03/11 01:10:39;;;;;;;20.40;17.60;;;;;;;18.66;47.16;100092.28;2088588;28;20035;-55
2021/03/11 01:11:39;;;;;;;18.50;16.60;;;;;;;18.65;47.25;100087.84;2087731;28;20536;-56
2021/03/11 01:12:40;;;;;;;20.50;15.93;;;;;;;18.65;47.15;100087.84;2088681;28;20296;-55
2021/03/11 01:13:40;;;;;;;19.17;17.10;;;;;;;18.65;47.05;100087.84;2088730;28;20084;-55
2021/03/11 01:14:43;;;;;;;20.30;16.87;;;;;;;18.66;47.07;100092.28;2087835;28;20024;-55
2021/03/11 01:15:43;;;;;;;19.75;16.33;;;;;;;18.66;47.27;100091.44;2088354;28;20021;-55
2021/03/11 01:16:49;;;;;;;18.73;16.08;;;;;;;18.66;47.17;100089.56;2087653;28;20076;-55
2021/03/11 01:17:50;;;;;;;16.83;14.80;;;;;;;18.65;47.07;100087.84;2088289;28;20339;-55
2021/03/11 01:18:50;;;;;;;20.03;16.27;;;;;;;18.66;47.24;100089.56;2092088;28;20067;-57
2021/03/11 01:19:51;;;;;;;19.43;16.03;;;;;;;18.66;47.17;100086.81;2088984;28;20426;-55
2021/03/11 01:20:51;;;;;;;20.67;16.33;;;;;;;18.66;47.39;100084.09;2089612;28;20021;-55
2021/03/11 01:21:51;;;;;;;19.03;15.57;;;;;;;18.66;47.41;100089.56;2083867;28;20053;-55
2021/03/11 01:22:52;;;;;;;18.93;14.53;;;;;;;18.67;47.31;100093.13;2090997;28;20034;-55
2021/03/11 01:23:52;;;;;;;18.77;16.77;;;;;;;18.66;47.56;100084.09;2082250;28;20052;-56
2021/03/11 01:24:53;;;;;;;20.30;17.30;;;;;;;18.67;47.27;100090.41;2088595;28;20025;-55
2021/03/11 01:25:53;;;;;;;22.30;16.57;;;;;;;18.67;47.35;100090.41;2088439;28;20022;-55
2021/03/11 01:26:54;;;;;;;19.73;15.93;;;;;;;18.67;47.22;100091.28;2089173;28;20036;-55
2021/03/11 01:27:54;;;;;;;18.63;15.10;;;;;;;18.67;47.34;100088.56;2088653;28;20235;-55
2021/03/11 01:28:54;;;;;;;20.00;17.30;;;;;;;18.67;47.42;100091.28;2088893;28;20060;-56
2021/03/11 01:29:55;;;;;;;20.77;17.03;;;;;;;18.68;47.26;100087.53;2087378;28;20304;-55
2021/03/11 01:30:55;;;;;;;18.43;16.20;;;;;;;18.67;47.29;100099.47;2088706;28;20025;-55
2021/03/11 01:31:55;;;;;;;20.60;16.13;;;;;;;18.68;47.23;100092.16;2081807;28;20481;-55
2021/03/11 01:32:56;;;;;;;18.07;15.70;;;;;;;18.67;47.17;100091.28;2086752;28;20079;-55
2021/03/11 01:33:56;;;;;;;21.37;17.37;;;;;;;18.68;47.26;100098.47;2086577;28;20025;-56
2021/03/11 01:34:57;;;;;;;20.47;16.93;;;;;;;18.67;47.22;100104.94;2089070;28;20119;-56
2021/03/11 01:35:57;;;;;;;19.53;16.47;;;;;;;18.68;47.23;100101.19;2088753;28;20098;-55
2021/03/11 01:36:58;;;;;;;19.53;15.83;;;;;;;18.68;47.11;100108.53;2087474;28;20447;-55
2021/03/11 01:37:58;;;;;;;18.80;16.13;;;;;;;18.67;47.19;100102.22;2084636;28;20091;-55
2021/03/11 01:38:59;;;;;;;20.20;17.93;;;;;;;18.68;47.10;100108.53;2088617;28;20033;-56
2021/03/11 01:39:59;;;;;;;22.83;17.67;;;;;;;18.67;47.20;100107.69;2088605;28;20462;-55
2021/03/11 01:41:00;;;;;;;21.40;16.80;;;;;;;18.67;47.20;100110.41;2088415;28;20366;-56
2021/03/11 01:42:01;;;;;;;17.63;15.55;;;;;;;18.66;47.28;100100.47;2088942;28;20055;-54
2021/03/11 01:43:02;;;;;;;18.37;15.93;;;;;;;18.67;47.24;100107.69;2087410;28;20036;-55
2021/03/11 01:44:03;;;;;;;19.27;16.92;;;;;;;18.66;47.30;100108.66;2087363;28;20343;-55
2021/03/11 01:45:06;;;;;;;20.07;16.07;;;;;;;18.67;47.11;100112.25;2089080;28;20060;-55
2021/03/11 01:46:08;;;;;;;19.88;15.70;;;;;;;18.66;47.33;100105.09;2085725;28;20055;-55
2021/03/11 01:47:08;;;;;;;20.55;16.40;;;;;;;18.65;47.16;100106.97;2080736;28;20052;-56
2021/03/11 01:48:09;;;;;;;19.87;16.40;;;;;;;18.66;47.11;100111.41;2085774;28;20025;-55
2021/03/11 01:49:09;;;;;;;19.80;15.97;;;;;;;18.66;47.17;100108.66;2087686;28;20032;-55
2021/03/11 01:50:10;;;;;;;17.53;15.00;;;;;;;18.66;47.17;100111.41;2087654;28;20277;-55
2021/03/11 01:51:11;;;;;;;17.70;15.30;;;;;;;18.66;47.28;100108.66;2086896;28;20017;-55
2021/03/11 01:52:12;;;;;;;19.13;16.07;;;;;;;18.66;47.17;100108.66;2089200;28;20033;-55
2021/03/11 01:53:12;;;;;;;19.50;16.23;;;;;;;18.65;47.14;100109.69;2085823;28;20099;-55
2021/03/11 01:54:13;;;;;;;19.43;17.13;;;;;;;18.65;47.14;100109.69;2088791;28;20484;-55
2021/03/11 01:55:14;;;;;;;18.07;15.37;;;;;;;18.65;47.30;100106.97;2088460;28;20028;-55
2021/03/11 01:56:15;;;;;;;19.88;15.57;;;;;;;18.64;47.35;100107.94;2086064;28;20115;-55
2021/03/11 01:57:15;;;;;;;17.80;15.27;;;;;;;18.65;47.20;100104.22;2087833;28;20032;-55
2021/03/11 01:58:16;;;;;;;19.00;16.43;;;;;;;18.64;47.39;100107.94;2087546;28;20051;-55
2021/03/11 01:59:17;;;;;;;18.25;15.98;;;;;;;18.64;47.27;100102.47;2086789;28;20104;-55
2021/03/11 02:00:18;;;;;;;18.13;15.73;;;;;;;18.63;47.18;100100.78;2086709;28;20186;-55
2021/03/11 02:01:18;;;;;;;19.27;15.50;;;;;;;18.62;47.41;100099.94;2084558;28;20029;-55
2021/03/11 02:02:18;;;;;;;19.67;16.17;;;;;;;18.62;47.28;100093.59;2084109;28;20025;-55
2021/03/11 02:03:19;;;;;;;23.67;16.00;;;;;;;18.64;47.33;100102.47;2083578;28;20033;-57
2021/03/11 02:04:20;;;;;;;18.50;15.50;;;;;;;18.61;47.41;100097.31;2081354;28;20099;-55
2021/03/11 02:05:22;;;;;;;16.73;14.40;;;;;;;18.60;47.25;100091.00;2088925;28;20029;-55
2021/03/11 02:06:22;;;;;;;18.17;15.13;;;;;;;18.61;47.39;100092.72;2082960;28;20025;-56
2021/03/11 02:07:23;;;;;;;18.53;15.57;;;;;;;18.60;47.25;100090.16;2087822;28;20027;-55
2021/03/11 02:08:23;;;;;;;18.10;16.20;;;;;;;18.60;47.30;100084.69;2082380;28;20032;-56
2021/03/11 02:09:24;;;;;;;18.37;15.93;;;;;;;18.60;47.35;100087.44;2088535;28;20063;-55
2021/03/11 02:10:26;;;;;;;17.97;16.07;;;;;;;18.59;47.44;100091.16;2088526;28;20697;-55
2021/03/11 02:11:27;;;;;;;16.40;13.73;;;;;;;18.59;47.34;100089.31;2088104;28;20039;-55
2021/03/11 02:12:50;;;;;;;17.63;15.45;;;;;;;18.59;47.33;100086.56;2088714;28;20025;-55
2021/03/11 02:14:01;;;;;;;17.17;14.27;;;;;;;18.58;47.47;100087.56;2087091;28;20179;-56
2021/03/11 02:15:04;;;;;;;17.73;15.52;;;;;;;18.57;47.52;100084.97;2084550;28;20056;-55
2021/03/11 02:16:26;;;;;;;17.30;15.07;;;;;;;18.58;47.58;100086.72;2087054;28;20048;-55
2021/03/11 02:17:34;;;;;;;18.40;15.45;;;;;;;18.57;47.47;100082.25;2080695;28;20506;-55
2021/03/11 02:19:14;;;;;;;19.20;15.13;;;;;;;18.58;47.47;100092.16;2087387;28;20021;-56
2021/03/11 02:20:33;;;;;;;18.20;15.68;;;;;;;18.58;47.36;100086.72;2086346;28;20016;-56
2021/03/11 02:21:48;;;;;;;18.52;15.50;;;;;;;18.56;47.52;100084.13;2090049;28;20024;-55
2021/03/11 02:23:19;;;;;;;16.67;14.77;;;;;;;18.57;47.58;100079.50;2083368;28;20079;-55
2021/03/11 02:24:50;;;;;;;17.48;14.80;;;;;;;18.58;47.41;100081.25;2086050;28;20087;-55
2021/03/11 02:26:19;;;;;;;18.50;15.20;;;;;;;18.57;47.59;100080.41;2087026;28;20025;-56
2021/03/11 02:27:40;;;;;;;17.23;13.85;;;;;;;18.57;47.56;100079.50;2089309;28;20090;-55
2021/03/11 02:29:01;;;;;;;18.33;14.88;;;;;;;18.57;47.79;100074.03;2082256;28;20316;-56
2021/03/11 02:30:03;;;;;;;18.20;15.32;;;;;;;18.56;47.74;100077.81;2088963;28;20029;-56
2021/03/11 02:31:04;;;;;;;16.58;14.40;;;;;;;18.56;47.75;100080.53;2089466;28;20017;-55
2021/03/11 02:32:07;;;;;;;16.83;14.37;;;;;;;18.56;47.87;100078.66;2090558;28;20516;-55
2021/03/11 02:33:09;;;;;;;16.92;15.13;;;;;;;18.56;47.93;100078.66;2087057;28;20036;-56
2021/03/11 02:34:14;;;;;;;16.77;14.52;;;;;;;18.57;47.75;100074.03;2088013;28;20036;-55
2021/03/11 02:35:15;;;;;;;19.10;14.73;;;;;;;18.57;48.05;100071.31;2090177;28;20056;-55
2021/03/11 02:36:16;;;;;;;15.95;13.95;;;;;;;18.57;48.03;100074.03;2090191;28;20029;-55
2021/03/11 02:37:27;;;;;;;19.92;15.38;;;;;;;18.58;47.75;100081.25;2089602;28;20048;-55
2021/03/11 02:38:29;;;;;;;17.77;14.40;;;;;;;18.57;47.94;100074.94;2086952;28;20445;-55
2021/03/11 02:39:32;;;;;;;18.65;15.30;;;;;;;18.58;47.97;100076.66;2089261;28;20132;-55
2021/03/11 02:40:35;;;;;;;18.23;14.45;;;;;;;18.58;47.91;100075.78;2089833;28;20032;-55
2021/03/11 02:41:39;;;;;;;16.27;14.57;;;;;;;18.58;47.88;100073.91;2090782;28;20024;-55
2021/03/11 02:42:41;;;;;;;16.80;13.95;;;;;;;18.58;47.82;100070.31;2090051;28;20421;-55
2021/03/11 02:43:45;;;;;;;17.17;14.32;;;;;;;18.57;47.97;100069.47;2090229;28;20087;-55
2021/03/11 02:44:46;;;;;;;17.10;14.38;;;;;;;18.58;47.75;100067.59;2082147;28;20167;-54
2021/03/11 02:45:47;;;;;;;19.17;15.07;;;;;;;18.58;47.79;100070.31;2086714;28;20062;-56
2021/03/11 02:46:49;;;;;;;17.58;14.63;;;;;;;18.58;47.72;100064.88;2090461;28;20167;-55
2021/03/11 02:47:51;;;;;;;17.95;14.40;;;;;;;18.59;47.74;100069.31;2089361;28;20039;-55
2021/03/11 02:48:54;;;;;;;18.25;14.15;;;;;;;18.59;47.72;100066.56;2088663;28;20451;-56
2021/03/11 02:49:57;;;;;;;16.20;13.18;;;;;;;18.58;47.83;100063.00;2090042;28;20033;-55
2021/03/11 02:50:58;;;;;;;18.45;15.48;;;;;;;18.59;47.71;100066.56;2085191;28;20255;-55
2021/03/11 02:51:59;;;;;;;;;;;;;;;18.58;47.56;100065.72;2089655;28;20032;-55
2021/03/11 02:53:52;;;;;;;16.52;14.55;;;;;;;18.58;47.67;100070.31;2088725;28;20084;-55
2021/03/11 02:54:54;;;;;;;17.20;14.57;;;;;;;18.58;47.75;100065.72;2087619;28;20032;-55
2021/03/11 02:55:58;;;;;;;16.73;14.00;;;;;;;18.57;47.56;100061.28;2089544;28;20163;-55
2021/03/11 02:57:01;;;;;;;17.25;13.75;;;;;;;18.57;47.54;100068.59;2090231;28;20175;-55
2021/03/11 02:58:03;;;;;;;15.52;13.23;;;;;;;18.57;47.59;100063.13;2086723;28;20174;-54
2021/03/11 02:59:05;;;;;;;;;;;;;;;18.57;47.55;100063.13;2087172;28;20359;-55
2021/03/11 03:00:11;;;;;;;15.70;13.23;;;;;;;18.57;47.72;100063.13;2089105;28;20321;-55
2021/03/11 03:01:16;;;;;;;15.20;13.52;;;;;;;18.58;47.75;100064.88;2085374;28;20431;-55
2021/03/11 03:02:17;;;;;;;16.15;13.55;;;;;;;18.58;47.62;100064.88;2086684;28;20047;-55
2021/03/11 03:03:18;;;;;;;16.92;14.90;;;;;;;18.56;47.82;100062.28;2088311;28;20091;-55
2021/03/11 03:04:19;;;;;;;17.37;14.30;;;;;;;18.56;47.68;100066.88;2087134;28;20179;-55
2021/03/11 03:05:22;;;;;;;16.67;14.80;;;;;;;18.56;47.56;100058.69;2087627;28;20133;-55
2021/03/11 03:06:23;;;;;;;16.13;13.93;;;;;;;18.57;47.77;100063.13;2089795;28;20037;-55
2021/03/11 03:07:25;;;;;;;16.67;14.93;;;;;;;18.56;47.65;100066.88;2089486;28;20033;-55
2021/03/11 03:08:27;;;;;;;16.92;14.40;;;;;;;18.56;47.68;100064.16;2086268;28;20147;-55
2021/03/11 03:09:28;;;;;;;18.23;15.07;;;;;;;18.56;47.72;100064.16;2089512;28;20043;-55
2021/03/11 03:10:31;;;;;;;16.17;13.30;;;;;;;18.55;47.80;100057.84;2089170;28;20056;-55
2021/03/11 03:11:35;;;;;;;16.40;13.50;;;;;;;18.55;47.77;100065.16;2090220;28;20438;-55
2021/03/11 03:12:37;;;;;;;15.40;13.55;;;;;;;18.55;47.72;100066.03;2086545;28;20070;-55
2021/03/11 03:13:40;;;;;;;17.45;14.27;;;;;;;18.55;47.75;100065.16;2089542;28;20084;-55
2021/03/11 03:14:46;;;;;;;15.25;13.65;;;;;;;18.55;47.85;100070.63;2089882;28;20513;-55
2021/03/11 03:15:47;;;;;;;16.58;13.48;;;;;;;18.54;47.72;100068.88;2091455;28;20025;-55
2021/03/11 03:16:49;;;;;;;16.65;13.60;;;;;;;18.54;47.87;100057.97;2089613;28;20057;-55
2021/03/11 03:17:52;;;;;;;16.50;13.10;;;;;;;18.53;47.82;100057.13;2088219;28;20108;-55
2021/03/11 03:18:54;;;;;;;17.88;13.43;;;;;;;18.53;47.84;100061.72;2088989;28;20344;-56
2021/03/11 03:19:55;;;;;;;16.50;14.18;;;;;;;18.53;47.74;100059.84;2089042;28;20040;-55
2021/03/11 03:20:58;;;;;;;16.48;13.77;;;;;;;18.53;47.89;100067.19;2091653;28;20032;-55
2021/03/11 03:21:58;;;;;;;16.20;13.95;;;;;;;18.53;47.75;100067.19;2090759;28;20045;-56
2021/03/11 03:23:04;;;;;;;15.07;13.17;;;;;;;18.52;47.73;100070.91;2090451;28;20502;-55
2021/03/11 03:24:05;;;;;;;15.80;13.90;;;;;;;18.52;47.88;100068.16;2089708;28;20396;-55
2021/03/11 03:25:10;;;;;;;14.70;12.97;;;;;;;18.52;47.91;100071.78;2089719;28;20040;-55
2021/03/11 03:26:11;;;;;;;17.48;13.95;;;;;;;18.51;47.86;100061.84;2092472;28;20078;-55
2021/03/11 03:27:14;;;;;;;18.23;14.57;;;;;;;18.51;47.96;100063.72;2089788;28;20377;-57
2021/03/11 03:28:15;;;;;;;15.02;13.43;;;;;;;18.51;47.77;100059.13;2087714;28;20110;-55
2021/03/11 03:29:16;;;;;;;14.75;13.10;;;;;;;18.51;48.05;100061.00;2093992;28;20037;-56
2021/03/11 03:30:18;;;;;;;15.30;13.47;;;;;;;18.51;47.92;100069.19;2089625;28;20037;-55
2021/03/11 03:31:19;;;;;;;15.75;13.18;;;;;;;18.49;47.93;100066.59;2088867;28;20025;-56
2021/03/11 03:32:19;;;;;;;14.43;12.90;;;;;;;18.50;47.90;100065.59;2088491;28;20057;-57
2021/03/11 03:33:19;;;;;;;15.30;13.47;;;;;;;18.50;47.90;100068.34;2089384;28;20158;-56
2021/03/11 03:34:20;;;;;;;16.30;13.83;;;;;;;18.51;47.96;100069.19;2096519;28;20438;-56
2021/03/11 03:35:22;;;;;;;15.17;12.93;;;;;;;18.50;47.99;100064.75;2092969;28;20178;-55
2021/03/11 03:36:22;;;;;;;;;;;;;;;18.51;47.90;100069.19;2094019;28;20033;-56
2021/03/11 03:37:23;;;;;;;14.98;13.35;;;;;;;18.51;47.84;100069.19;2091498;28;19921;-56
2021/03/11 03:38:23;;;;;;;14.83;12.33;;;;;;;18.50;47.91;100062.88;2084533;28;20060;-55
2021/03/11 03:39:24;;;;;;;16.00;13.50;;;;;;;18.51;48.00;100061.00;2089840;28;20343;-56
2021/03/11 03:40:25;;;;;;;15.03;13.43;;;;;;;18.50;48.09;100056.56;2089474;28;20431;-57
2021/03/11 03:41:27;;;;;;;15.75;12.55;;;;;;;18.51;48.24;100058.28;2089801;28;20320;-57
2021/03/11 03:42:30;;;;;;;14.20;12.15;;;;;;;18.50;48.30;100062.03;2088180;28;20098;-56
2021/03/11 03:43:33;;;;;;;15.68;12.90;;;;;;;18.50;48.33;100056.56;2089938;28;20028;-57
2021/03/11 03:44:38;;;;;;;15.52;12.95;;;;;;;18.50;48.23;100062.03;2089317;28;20036;-56
2021/03/11 03:45:50;;;;;;;15.32;13.23;;;;;;;18.51;48.27;100058.28;2092005;28;20389;-56
2021/03/11 03:46:51;;;;;;;16.25;12.80;;;;;;;18.51;48.39;100063.72;2098171;28;20117;-55
2021/03/11 03:47:54;;;;;;;14.80;12.55;;;;;;;18.51;48.42;100061.00;2095927;28;20085;-56
2021/03/11 03:48:58;;;;;;;16.65;13.48;;;;;;;18.52;48.18;100059.97;2096513;28;20489;-56
2021/03/11 03:49:58;;;;;;;14.95;13.32;;;;;;;18.52;48.48;100062.72;2098317;28;20099;-56
2021/03/11 03:50:59;;;;;;;15.50;13.57;;;;;;;18.51;48.19;100055.53;2091144;28;20024;-55
2021/03/11 03:52:02;;;;;;;15.73;13.00;;;;;;;18.52;48.35;100054.53;2087476;28;20091;-56
2021/03/11 03:53:08;;;;;;;16.98;12.82;;;;;;;18.53;48.39;100056.25;2089618;28;20033;-55
2021/03/11 03:54:12;;;;;;;15.15;12.40;;;;;;;18.53;48.47;100059.00;2089566;28;20339;-56
2021/03/11 03:55:13;;;;;;;14.45;12.75;;;;;;;18.52;48.34;100054.53;2089754;28;20136;-56
2021/03/11 03:56:28;;;;;;;14.95;13.07;;;;;;;18.53;48.46;100059.00;2089291;28;20381;-56
2021/03/11 03:57:29;;;;;;;15.63;12.95;;;;;;;18.53;48.39;100067.19;2086651;28;20048;-56
2021/03/11 03:58:31;;;;;;;15.45;13.07;;;;;;;18.52;48.34;100066.34;2089925;28;20427;-56
2021/03/11 03:59:35;;;;;;;;;;;;;;;18.52;48.31;100060.88;2089114;28;20035;-56
2021/03/11 04:00:36;;;;;;;15.40;12.25;;;;;;;18.52;48.32;100057.25;2090924;28;19922;-56
2021/03/11 04:01:42;;;;;;;14.43;12.63;;;;;;;18.53;48.41;100061.72;2088872;28;20071;-55
2021/03/11 04:02:44;;;;;;;16.23;13.57;;;;;;;18.52;48.34;100065.44;2088353;28;20079;-56
2021/03/11 04:03:46;;;;;;;15.32;13.05;;;;;;;18.52;48.29;100065.44;2088104;28;20029;-56
2021/03/11 04:04:49;;;;;;;15.68;12.63;;;;;;;18.52;48.29;100060.88;2090290;28;20048;-56
2021/03/11 04:05:55;;;;;;;17.25;12.57;;;;;;;18.53;48.32;100067.19;2095494;28;20031;-56
2021/03/11 04:06:57;;;;;;;15.02;12.60;;;;;;;18.52;48.08;100070.91;2081548;28;20045;-55
2021/03/11 04:07:58;;;;;;;14.07;12.35;;;;;;;18.53;48.08;100069.91;2093323;28;20029;-56
2021/03/11 04:09:01;;;;;;;14.03;11.83;;;;;;;18.52;48.04;100071.78;2088660;28;20033;-55
2021/03/11 04:10:07;;;;;;;14.20;11.77;;;;;;;18.52;48.06;100059.97;2087896;28;20033;-55
2021/03/11 04:11:08;;;;;;;15.45;12.43;;;;;;;18.52;48.30;100068.16;2088483;28;20085;-57
2021/03/11 04:12:10;;;;;;;15.93;13.45;;;;;;;18.51;47.94;100066.47;2092027;28;20090;-55
2021/03/11 04:13:11;;;;;;;15.02;12.65;;;;;;;18.52;48.25;100070.91;2089540;28;20083;-55
2021/03/11 04:14:13;;;;;;;15.48;12.35;;;;;;;18.53;48.05;100069.91;2091302;28;20025;-55
2021/03/11 04:15:14;;;;;;;16.00;12.98;;;;;;;18.51;48.07;100063.72;2092627;28;20342;-55
2021/03/11 04:16:16;;;;;;;14.67;12.90;;;;;;;18.51;48.08;100059.13;2089316;28;20044;-55
2021/03/11 04:17:17;;;;;;;14.50;12.57;;;;;;;18.51;48.10;100059.13;2088648;28;20306;-55
2021/03/11 04:18:18;;;;;;;13.15;11.70;;;;;;;18.50;48.16;100059.28;2088815;28;20344;-55
2021/03/11 04:19:21;;;;;;;13.55;11.88;;;;;;;18.51;47.94;100055.53;2091225;28;20526;-56
2021/03/11 04:20:22;;;;;;;15.05;12.18;;;;;;;18.51;48.23;100063.72;2090174;28;20381;-56
2021/03/11 04:21:22;;;;;;;15.10;12.40;;;;;;;18.51;48.09;100063.72;2089013;28;20036;-57
2021/03/11 04:22:23;;;;;;;14.83;13.13;;;;;;;18.51;48.08;100058.28;2089826;28;20027;-56
2021/03/11 04:23:24;;;;;;;14.80;12.43;;;;;;;18.50;48.26;100062.88;2092696;28;20036;-55
2021/03/11 04:24:25;;;;;;;13.77;12.07;;;;;;;18.51;48.25;100058.28;2091382;28;20063;-57
2021/03/11 04:25:26;;;;;;;15.00;12.27;;;;;;;18.50;48.15;100056.56;2086906;28;21519;-55
2021/03/11 04:26:27;;;;;;;15.23;12.50;;;;;;;18.50;48.17;100062.03;2091084;28;20342;-56
2021/03/11 04:27:28;;;;;;;13.50;11.27;;;;;;;18.50;48.03;100056.56;2090342;28;20047;-55
2021/03/11 04:28:29;;;;;;;15.00;12.00;;;;;;;18.50;48.17;100065.59;2092265;28;20036;-55
2021/03/11 04:29:30;;;;;;;13.80;11.93;;;;;;;18.49;48.16;100057.56;2094729;28;20032;-55
2021/03/11 04:30:30;;;;;;;15.18;12.55;;;;;;;18.49;48.23;100055.69;2093085;28;20474;-56
2021/03/11 04:31:32;;;;;;;14.37;11.13;;;;;;;18.48;48.13;100058.56;2084904;28;20045;-55
2021/03/11 04:32:36;;;;;;;14.13;12.30;;;;;;;18.49;48.34;100049.38;2084809;28;20033;-56
2021/03/11 04:33:37;;;;;;;14.43;12.07;;;;;;;18.48;48.13;100053.97;2093564;28;20028;-55
2021/03/11 04:34:37;;;;;;;13.55;11.60;;;;;;;18.47;48.39;100059.56;2089420;28;20036;-60
2021/03/11 04:35:38;;;;;;;14.20;12.30;;;;;;;18.50;48.13;100062.88;2093224;28;20040;-60
2021/03/11 04:36:40;;;;;;;14.27;11.60;;;;;;;18.52;48.21;100057.25;2096115;28;20151;-60
2021/03/11 04:37:41;;;;;;;13.52;11.50;;;;;;;18.53;48.11;100053.53;2077784;28;20231;-60
2021/03/11 04:38:41;;;;;;;14.05;11.75;;;;;;;18.55;48.03;100059.72;2076415;28;20037;-58
2021/03/11 04:39:43;;;;;;;14.63;12.50;;;;;;;18.55;48.35;100062.44;2069753;28;20030;-58
2021/03/11 04:40:44;;;;;;;15.27;12.27;;;;;;;18.57;47.94;100068.59;2073761;28;20037;-58
2021/03/11 04:41:47;;;;;;;13.90;11.60;;;;;;;18.58;48.11;100064.88;2066747;28;22573;-51
2021/03/11 04:42:47;;;;;;;12.93;11.38;;;;;;;18.59;47.95;100066.56;2061898;28;20037;-54
2021/03/11 04:43:49;;;;;;;13.90;11.73;;;;;;;18.59;47.96;100070.19;2070102;28;20034;-53
2021/03/11 04:44:50;;;;;;;14.02;12.52;;;;;;;18.63;48.01;100062.56;2070209;28;20173;-52